Time;durP1;ratioP1;P1;durP2;ratioP2;P2;SDS_P1;SDS_P2;PMS_P1;PMS_P2;Temp;Humidity;BMP_temperature;BMP_pressure;BME280_temperature;BME280_humidity;BME280_pressure;Samples;Min_cycle;Max_cycle;Signal;HPM_P1;HPM_P2
2021/11/19 00:00:38;;;;;;;;;13.75;13.25;;;;;20.64;41.21;102748.31;5097645;27;45552;-53
2021/11/19 00:03:05;;;;;;;;;13.00;12.50;;;;;20.66;40.68;102754.41;5097388;27;45592;-52
2021/11/19 00:05:30;;;;;;;;;15.50;14.25;;;;;20.66;40.71;102753.53;5078921;27;45842;-50
2021/11/19 00:07:56;;;;;;;;;12.25;11.50;;;;;20.66;40.68;102764.06;5097411;27;45221;-45
2021/11/19 00:10:23;;;;;;;;;12.75;12.75;;;;;20.65;40.59;102759.69;5097745;27;45588;-48
2021/11/19 00:12:49;;;;;;;;;14.00;12.25;;;;;20.64;40.84;102750.06;5097182;27;46368;-47
2021/11/19 00:15:16;;;;;;;;;13.50;11.25;;;;;20.59;40.62;102750.19;5097126;27;45467;-46
2021/11/19 00:17:41;;;;;;;;;11.75;9.25;;;;;20.63;40.80;102756.22;5097242;27;45391;-49
2021/11/19 00:20:10;;;;;;;;;12.00;10.75;;;;;20.57;40.53;102749.34;5097234;27;45651;-52
2021/11/19 00:22:36;;;;;;;;;14.25;12.25;;;;;20.61;40.68;102756.28;5097029;27;46589;-52
2021/11/19 00:25:01;;;;;;;;;13.00;11.00;;;;;20.59;41.08;102750.19;5078657;27;45697;-48
2021/11/19 00:27:26;;;;;;;;;12.75;12.25;;;;;20.57;40.55;102749.34;5097411;27;45769;-46
2021/11/19 00:29:53;;;;;;;;;9.50;9.50;;;;;20.57;40.69;102751.97;5097291;27;45645;-44
2021/11/19 00:32:18;;;;;;;;;13.75;10.25;;;;;20.56;40.60;102744.97;5096761;27;46394;-58
2021/11/19 00:34:44;;;;;;;;;10.25;10.25;;;;;20.53;40.58;102737.16;5096828;27;45220;-55
2021/11/19 00:37:11;;;;;;;;;12.75;10.50;;;;;20.56;40.90;102747.59;5097075;27;45308;-60
2021/11/19 00:39:36;;;;;;;;;12.75;12.00;;;;;20.55;40.69;102744.13;5097090;27;45377;-54
2021/11/19 00:42:04;;;;;;;;;12.50;11.00;;;;;20.53;41.02;102738.03;5078474;27;47181;-55
2021/11/19 00:44:29;;;;;;;;;12.25;12.00;;;;;20.54;40.61;102744.16;5096717;27;45885;-58
2021/11/19 00:46:56;;;;;;;;;9.25;8.75;;;;;20.53;40.88;102734.53;5097142;27;45249;-57
2021/11/19 00:49:26;;;;;;;;;10.75;10.25;;;;;20.53;41.03;102737.16;5097098;27;45261;-56
2021/11/19 00:51:54;;;;;;;;;15.25;13.00;;;;;20.47;41.02;102730.28;5096434;27;47394;-58
2021/11/19 00:54:20;;;;;;;;;13.25;9.50;;;;;20.50;40.85;102740.75;5078419;27;46007;-48
2021/11/19 00:56:49;;;;;;;;;11.25;11.00;;;;;20.51;41.08;102744.25;5096635;27;45211;-58
2021/11/19 00:59:17;;;;;;;;;10.75;9.25;;;;;20.51;40.78;102738.97;5096766;27;45310;-51
2021/11/19 01:01:55;;;;;;;;;11.00;10.00;;;;;20.47;41.22;102737.31;5099016;27;46437;-56
2021/11/19 01:04:21;;;;;;;;;8.00;7.50;;;;;20.50;41.05;102737.25;5100023;27;45221;-58
2021/11/19 01:06:48;;;;;;;;;12.25;12.25;;;;;20.50;40.84;102739.88;5100114;27;45419;-56
2021/11/19 01:09:18;;;;;;;;;13.25;11.00;;;;;20.48;40.91;102733.78;5100338;27;45334;-58
2021/11/19 01:11:45;;;;;;;;;9.00;9.00;;;;;20.49;40.52;102735.50;5099996;27;46492;-57
2021/11/19 01:14:17;;;;;;;;;11.50;9.50;;;;;20.48;40.55;102723.22;5099900;27;45901;-55
2021/11/19 01:16:54;;;;;;;;;11.00;11.00;;;;;20.46;40.85;102728.56;5081555;27;45383;-54
2021/11/19 01:19:49;;;;;;;;;12.00;11.00;;;;;20.42;40.73;102718.13;5100206;27;45828;-51
2021/11/19 01:22:21;;;;;;;;;10.25;10.25;;;;;20.46;40.55;102730.31;5083179;27;46090;-53
2021/11/19 01:24:47;;;;;;;;;10.25;10.25;;;;;20.45;41.32;102729.44;5099971;27;45342;-56
2021/11/19 01:27:13;;;;;;;;;15.50;11.00;;;;;20.45;40.86;102723.34;5099917;27;45385;-54
2021/11/19 01:29:38;;;;;;;;;13.25;11.25;;;;;20.44;40.65;102722.44;5100134;27;45445;-52
2021/11/19 01:32:11;;;;;;;;;11.75;10.00;;;;;20.43;40.80;102715.44;5099856;27;46614;-54
2021/11/19 01:34:37;;;;;;;;;8.75;8.75;;;;;20.44;41.17;102716.34;5099885;27;45383;-49
2021/11/19 01:37:04;;;;;;;;;10.50;8.50;;;;;20.42;40.48;102719.00;5099726;27;45473;-52
2021/11/19 01:39:31;;;;;;;;;11.25;11.25;;;;;20.42;40.62;102720.78;5100197;27;45566;-51
2021/11/19 01:42:21;;;;;;;;;14.25;9.75;;;;;20.37;41.10;102716.47;5099755;27;46606;-47
2021/11/19 01:45:05;;;;;;;;;11.75;10.50;;;;;20.37;40.97;102711.19;5051738;27;45315;-57
2021/11/19 01:47:32;;;;;;;;;11.00;9.25;;;;;20.38;40.60;102710.31;5099736;27;45564;-51
2021/11/19 01:49:58;;;;;;;;;12.75;11.25;;;;;20.39;40.91;102719.09;5099960;27;45590;-59
2021/11/19 01:52:35;;;;;;;;;9.75;9.50;;;;;20.38;41.02;102718.19;5099353;27;45296;-58
2021/11/19 01:55:11;;;;;;;;;10.00;10.00;;;;;20.37;41.00;102718.25;5099701;27;45850;-58
2021/11/19 01:57:47;;;;;;;;;11.00;10.00;;;;;20.38;40.92;102718.19;5099474;27;45844;-58
2021/11/19 02:00:42;;;;;;;;;9.00;9.00;;;;;20.37;40.63;102707.72;5099481;27;45362;-55
2021/11/19 02:03:11;;;;;;;;;8.50;8.50;;;;;20.34;41.05;102702.53;5025826;27;45506;-56
2021/11/19 02:05:42;;;;;;;;;9.00;9.00;;;;;20.34;41.20;102703.38;5099107;27;45294;-58
2021/11/19 02:08:15;;;;;;;;;10.50;9.00;;;;;20.32;40.74;102704.31;5099147;27;45303;-55
2021/11/19 02:11:19;;;;;;;;;10.75;10.75;;;;;20.35;40.83;102709.50;5099418;27;45301;-57
2021/11/19 02:13:50;;;;;;;;;10.75;10.25;;;;;20.34;40.58;102708.63;5066616;27;47532;-57
2021/11/19 02:16:22;;;;;;;;;11.50;9.25;;;;;20.33;40.73;102706.94;5098983;27;45373;-57
2021/11/19 02:19:19;;;;;;;;;9.75;9.75;;;;;20.33;41.11;102700.78;5099034;27;45261;-47
2021/11/19 02:21:56;;;;;;;;;12.75;10.00;;;;;20.30;41.16;102708.75;5099251;27;45381;-56
2021/11/19 02:24:41;;;;;;;;;11.50;11.00;;;;;20.33;40.89;102704.31;5098997;27;46594;-58
2021/11/19 02:27:12;;;;;;;;;12.00;10.50;;;;;20.33;40.79;102706.06;5098058;27;45323;-56
2021/11/19 02:29:45;;;;;;;;;11.50;10.25;;;;;20.27;40.83;102701.81;5099190;27;45351;-58
2021/11/19 02:32:15;;;;;;;;;9.50;9.00;;;;;20.30;40.83;102704.38;5098962;27;45474;-59
2021/11/19 02:34:40;;;;;;;;;12.50;9.50;;;;;20.30;40.64;102708.75;5098643;27;45861;-59
2021/11/19 02:37:14;;;;;;;;;10.75;10.00;;;;;20.26;40.89;102700.06;5098764;27;45335;-51
2021/11/19 02:39:45;;;;;;;;;10.25;9.50;;;;;20.29;40.98;102707.91;5098714;27;45601;-46
2021/11/19 02:42:27;;;;;;;;;10.00;9.75;;;;;20.31;40.72;102710.47;5099081;27;45213;-48
2021/11/19 02:44:56;;;;;;;;;9.25;9.00;;;;;20.29;40.70;102702.63;5097642;27;45550;-57
2021/11/19 02:47:24;;;;;;;;;9.50;7.50;;;;;20.28;40.98;102700.91;5098525;27;45799;-58
2021/11/19 02:49:50;;;;;;;;;11.50;11.50;;;;;20.27;40.79;102693.91;5098610;27;45359;-58
2021/11/19 02:52:23;;;;;;;;;16.25;9.75;;;;;20.28;41.10;102706.16;5098787;27;45486;-57
2021/11/19 02:54:49;;;;;;;;;13.50;13.00;;;;;20.21;41.28;102694.06;5098123;27;46556;-57
2021/11/19 02:57:16;;;;;;;;;9.75;9.75;;;;;20.28;40.70;102697.41;5098374;27;45469;-58
2021/11/19 02:59:42;;;;;;;;;9.75;9.75;;;;;20.26;41.10;102697.44;5098323;27;45467;-56
2021/11/19 03:02:26;;;;;;;;;13.75;11.00;;;;;20.23;40.94;102694.88;5098447;27;45617;-55
2021/11/19 03:04:55;;;;;;;;;10.25;9.75;;;;;20.24;41.20;102697.47;5098274;27;46162;-58
2021/11/19 03:07:21;;;;;;;;;12.50;10.75;;;;;20.24;40.67;102705.38;5097916;27;46399;-57
2021/11/19 03:09:54;;;;;;;;;10.75;9.25;;;;;20.25;41.27;102698.34;5098317;27;45349;-58
2021/11/19 03:12:22;;;;;;;;;10.00;9.75;;;;;20.24;40.81;102699.22;5098387;27;45474;-59
2021/11/19 03:14:51;;;;;;;;;9.75;9.25;;;;;20.25;40.97;102693.06;5080018;27;46832;-56
2021/11/19 03:17:19;;;;;;;;;9.00;8.00;;;;;20.22;40.68;102690.53;5098107;27;45810;-58
2021/11/19 03:19:45;;;;;;;;;11.50;8.75;;;;;20.21;40.78;102691.44;5097968;27;45335;-56
2021/11/19 03:22:13;;;;;;;;;10.25;9.50;;;;;20.22;41.19;102694.00;5098467;27;45348;-59
2021/11/19 03:24:39;;;;;;;;;9.50;9.00;;;;;20.22;41.25;102696.66;5096641;27;46563;-58
2021/11/19 03:27:06;;;;;;;;;11.00;10.00;;;;;20.21;41.21;102683.53;5079785;27;45505;-57
2021/11/19 03:29:32;;;;;;;;;9.50;9.00;;;;;20.20;40.67;102682.66;5079790;27;45461;-57
2021/11/19 03:31:58;;;;;;;;;10.00;8.50;;;;;20.20;40.78;102687.91;5098072;27;45321;-59
2021/11/19 03:34:24;;;;;;;;;10.00;10.00;;;;;20.21;41.09;102688.81;5079370;27;47423;-46
2021/11/19 03:36:53;;;;;;;;;8.25;7.00;;;;;20.20;41.00;102684.44;5097825;27;45280;-46
2021/11/19 03:39:21;;;;;;;;;10.25;9.00;;;;;20.21;40.72;102679.13;5097949;27;45355;-46
2021/11/19 03:41:48;;;;;;;;;9.25;8.75;;;;;20.21;40.68;102686.16;5098026;27;45447;-57
2021/11/19 03:44:16;;;;;;;;;9.75;9.75;;;;;20.20;40.89;102681.81;5097522;27;45372;-58
2021/11/19 03:46:45;;;;;;;;;10.25;10.25;;;;;20.20;41.22;102681.81;5097792;27;45406;-58
2021/11/19 03:49:11;;;;;;;;;11.00;8.25;;;;;20.19;40.86;102675.66;5097718;27;45375;-57
2021/11/19 03:51:45;;;;;;;;;9.25;9.25;;;;;20.17;41.07;102676.59;5098438;27;45600;-54
2021/11/19 03:54:13;;;;;;;;;10.00;10.00;;;;;20.18;41.27;102681.81;5097453;27;45343;-58
2021/11/19 03:56:38;;;;;;;;;10.25;9.50;;;;;20.19;40.67;102680.06;5097338;27;46006;-57
2021/11/19 03:59:05;;;;;;;;;10.25;8.25;;;;;20.17;40.99;102676.59;5097838;27;45264;-56
2021/11/19 04:01:34;;;;;;;;;10.50;9.00;;;;;20.18;40.62;102683.59;5097610;27;45622;-58
2021/11/19 04:04:01;;;;;;;;;9.50;8.25;;;;;20.17;41.13;102681.88;5097276;27;45394;-57
2021/11/19 04:06:27;;;;;;;;;10.75;10.00;;;;;20.13;40.91;102675.81;5097039;27;45383;-59
2021/11/19 04:08:53;;;;;;;;;9.00;9.00;;;;;20.17;41.13;102679.25;5097450;27;45339;-57
2021/11/19 04:11:19;;;;;;;;;13.75;10.50;;;;;20.14;41.10;102679.31;5097368;27;45330;-58
2021/11/19 04:13:46;;;;;;;;;9.50;8.25;;;;;20.17;41.40;102684.50;5097087;27;46388;-56
2021/11/19 04:16:27;;;;;;;;;6.25;6.25;;;;;20.17;40.80;102689.75;5097237;27;45843;-59
2021/11/19 04:18:53;;;;;;;;;9.25;8.50;;;;;20.16;40.90;102682.78;5097073;27;45374;-54
2021/11/19 04:21:19;;;;;;;;;13.75;11.50;;;;;20.16;41.51;102686.28;5097450;27;45459;-51
2021/11/19 04:23:49;;;;;;;;;11.00;9.25;;;;;20.14;40.75;102682.81;5096853;27;45327;-45
2021/11/19 04:26:15;;;;;;;;;7.25;7.25;;;;;20.19;41.23;102686.19;5096946;27;45243;-49
2021/11/19 04:28:40;;;;;;;;;12.25;10.25;;;;;20.22;41.54;102685.25;5097205;27;45339;-47
2021/11/19 04:31:07;;;;;;;;;8.75;7.50;;;;;20.27;41.36;102687.78;5097536;27;45832;-49
2021/11/19 04:33:33;;;;;;;;;9.25;9.00;;;;;20.31;41.07;102687.66;5096850;27;45430;-46
2021/11/19 04:35:59;;;;;;;;;9.25;8.50;;;;;20.29;40.92;102675.41;5098483;27;45264;-45
2021/11/19 04:38:26;;;;;;;;;8.50;8.25;;;;;20.39;41.22;102684.84;5099970;27;45844;-54
2021/11/19 04:40:53;;;;;;;;;8.25;7.25;;;;;20.45;40.76;102686.47;5101078;27;45226;-50
2021/11/19 04:43:20;;;;;;;;;8.50;8.50;;;;;20.49;40.86;102686.34;5100599;27;45471;-54
2021/11/19 04:45:46;;;;;;;;;8.00;6.50;;;;;20.51;40.85;102675.75;5100527;27;45891;-54
2021/11/19 04:48:12;;;;;;;;;8.25;8.25;;;;;20.58;41.29;102682.56;5100555;27;45312;-51
2021/11/19 04:50:41;;;;;;;;;8.50;6.00;;;;;20.63;40.72;102675.44;5100991;27;45320;-54
2021/11/19 04:53:09;;;;;;;;;7.75;6.75;;;;;20.69;41.26;102682.31;5100591;27;46090;-55
2021/11/19 04:55:35;;;;;;;;;8.00;8.00;;;;;20.73;40.85;102677.81;5100219;27;45923;-58
2021/11/19 04:58:00;;;;;;;;;6.25;6.25;;;;;20.76;41.19;102678.63;5100459;27;45480;-57
2021/11/19 05:00:31;;;;;;;;;9.00;8.00;;;;;20.80;40.88;102679.41;5100469;27;45414;-57
2021/11/19 05:02:56;;;;;;;;;8.25;8.25;;;;;20.84;40.61;102681.91;5100186;27;46440;-53
2021/11/19 05:05:23;;;;;;;;;9.75;9.75;;;;;20.87;40.37;102685.38;5081451;27;45533;-58
2021/11/19 05:07:49;;;;;;;;;11.00;8.75;;;;;20.88;40.71;102679.19;5100147;27;45225;-53
2021/11/19 05:10:15;;;;;;;;;8.50;8.00;;;;;20.90;40.80;102683.50;5100310;27;45345;-54
2021/11/19 05:12:47;;;;;;;;;8.00;8.00;;;;;20.89;40.71;102680.94;5100351;27;46592;-55
2021/11/19 05:15:14;;;;;;;;;11.00;7.75;;;;;20.89;40.62;102673.03;5082179;27;45359;-51
2021/11/19 05:17:40;;;;;;;;;7.00;7.00;;;;;20.91;40.81;102669.44;5100549;27;45224;-45
2021/11/19 05:20:08;;;;;;;;;9.25;9.00;;;;;20.95;40.15;102676.34;5100217;27;45299;-43
2021/11/19 05:22:34;;;;;;;;;9.00;9.00;;;;;20.96;40.68;102671.94;5099898;27;45599;-46
2021/11/19 05:24:59;;;;;;;;;8.00;7.25;;;;;20.96;40.17;102670.19;5081601;27;45321;-45
2021/11/19 05:27:25;;;;;;;;;8.25;7.75;;;;;20.94;40.60;102663.22;5100086;27;45315;-47
2021/11/19 05:29:50;;;;;;;;;9.00;7.25;;;;;20.99;40.43;102667.47;5100224;27;45506;-44
2021/11/19 05:32:16;;;;;;;;;9.25;8.25;;;;;20.98;40.04;102660.47;5081311;27;47270;-44
2021/11/19 05:34:43;;;;;;;;;10.00;8.25;;;;;21.00;40.40;102657.78;5099968;27;45252;-46
2021/11/19 05:37:09;;;;;;;;;8.50;8.50;;;;;21.00;40.30;102657.78;5100229;27;45470;-44
2021/11/19 05:39:35;;;;;;;;;9.00;9.00;;;;;20.98;39.99;102660.47;5099873;27;45604;-43
2021/11/19 05:42:01;;;;;;;;;8.00;8.00;;;;;21.02;40.22;102663.88;5099548;27;45394;-46
2021/11/19 05:44:26;;;;;;;;;9.00;7.50;;;;;21.03;40.23;102670.88;5099519;27;45378;-46
2021/11/19 05:46:52;;;;;;;;;8.75;8.75;;;;;21.04;40.42;102663.81;5098663;27;45387;-44
2021/11/19 05:49:20;;;;;;;;;7.00;7.00;;;;;21.03;40.33;102672.63;5099653;27;45693;-44
2021/11/19 05:51:48;;;;;;;;;9.75;8.50;;;;;21.04;40.16;102677.00;5099191;27;47209;-48
2021/11/19 05:54:16;;;;;;;;;10.00;8.00;;;;;21.03;39.78;102675.25;5099395;27;45177;-47
2021/11/19 05:56:42;;;;;;;;;8.00;8.00;;;;;21.01;40.24;102677.94;5099824;27;45271;-44
2021/11/19 05:59:08;;;;;;;;;7.75;7.50;;;;;21.04;39.73;102684.91;5099543;27;45453;-45
2021/11/19 06:01:33;;;;;;;;;9.00;7.25;;;;;20.99;39.65;102683.28;5099246;27;45437;-48
2021/11/19 06:03:59;;;;;;;;;7.50;7.50;;;;;20.97;39.94;102679.81;5099346;27;45327;-44
2021/11/19 06:06:25;;;;;;;;;10.00;9.25;;;;;21.01;39.87;102681.44;5080914;27;45289;-48
2021/11/19 06:08:50;;;;;;;;;6.75;6.75;;;;;21.01;39.84;102680.59;5099407;27;45547;-49
2021/11/19 06:11:26;;;;;;;;;9.00;7.50;;;;;21.00;40.03;102684.13;5099005;27;46310;-51
2021/11/19 06:13:58;;;;;;;;;10.00;8.50;;;;;20.95;40.04;102684.25;5080783;27;45325;-49
2021/11/19 06:16:32;;;;;;;;;10.75;9.00;;;;;20.98;39.91;102686.81;5080683;27;45493;-58
2021/11/19 06:19:01;;;;;;;;;9.75;9.75;;;;;20.97;39.79;102689.47;5099236;27;45414;-52
2021/11/19 06:21:31;;;;;;;;;8.50;8.50;;;;;20.94;39.47;102685.16;5098845;27;45290;-50
2021/11/19 06:24:00;;;;;;;;;10.25;7.75;;;;;20.90;39.79;102686.16;5080003;27;45502;-53
2021/11/19 06:26:27;;;;;;;;;13.50;11.00;;;;;20.87;39.27;102688.88;5098939;27;45304;-54
2021/11/19 06:29:02;;;;;;;;;10.25;8.75;;;;;20.85;39.03;102693.34;5099247;27;45263;-58
2021/11/19 06:31:27;;;;;;;;;10.00;8.50;;;;;20.81;39.27;102694.31;5098398;27;46221;-52
2021/11/19 06:33:54;;;;;;;;;13.00;9.75;;;;;20.79;39.24;102690.84;5098758;27;45335;-47
2021/11/19 06:36:19;;;;;;;;;10.25;10.25;;;;;20.77;39.37;102692.69;5098839;27;45260;-48
2021/11/19 06:38:47;;;;;;;;;10.00;7.25;;;;;20.75;39.04;102686.59;5099200;27;45227;-49
2021/11/19 06:41:13;;;;;;;;;14.50;12.00;;;;;20.72;38.79;102689.25;5098695;27;45431;-50
2021/11/19 06:43:39;;;;;;;;;8.00;8.00;;;;;20.67;39.20;102687.59;5098467;27;45331;-52
2021/11/19 06:46:06;;;;;;;;;11.75;8.25;;;;;20.65;38.98;102699.97;5098585;27;45295;-45
2021/11/19 06:48:31;;;;;;;;;9.50;9.50;;;;;20.64;39.00;102705.25;5098852;27;45186;-49
2021/11/19 06:50:57;;;;;;;;;7.25;7.25;;;;;20.63;38.99;102699.16;5098188;27;45481;-53
2021/11/19 06:53:26;;;;;;;;;8.75;8.75;;;;;20.64;38.97;102697.38;5098342;27;45368;-47
2021/11/19 06:55:51;;;;;;;;;10.00;8.50;;;;;20.64;39.52;102690.34;5098447;27;45325;-50
2021/11/19 06:58:17;;;;;;;;;6.75;6.75;;;;;20.61;39.26;102685.13;5098327;27;45592;-47
2021/11/19 07:00:44;;;;;;;;;8.00;8.00;;;;;20.61;39.38;102684.28;5098438;27;45392;-48
2021/11/19 07:03:11;;;;;;;;;10.00;9.00;;;;;20.61;39.55;102686.94;5098190;27;45742;-48
2021/11/19 07:05:36;;;;;;;;;8.00;8.00;;;;;20.63;39.59;102704.41;5080000;27;45317;-50
2021/11/19 07:08:04;;;;;;;;;7.75;7.00;;;;;20.62;39.47;102710.59;5098544;27;45333;-52
2021/11/19 07:10:31;;;;;;;;;8.00;7.75;;;;;20.62;39.43;102709.69;5097863;27;46660;-55
2021/11/19 07:12:57;;;;;;;;;8.00;7.50;;;;;20.59;39.04;102715.91;5098150;27;46009;-53
2021/11/19 07:15:24;;;;;;;;;8.50;7.00;;;;;20.60;39.68;102722.06;5098215;27;45343;-53
2021/11/19 07:17:50;;;;;;;;;5.25;5.25;;;;;20.60;39.29;102722.06;5098404;27;45548;-53
2021/11/19 07:20:20;;;;;;;;;8.75;7.00;;;;;20.58;39.48;102722.09;5062802;27;48405;-55
2021/11/19 07:22:46;;;;;;;;;7.50;7.00;;;;;20.60;39.25;102732.63;5098154;27;45915;-47
2021/11/19 07:25:15;;;;;;;;;3.75;3.25;;;;;20.59;39.91;102731.72;5098092;27;45351;-52
2021/11/19 07:27:41;;;;;;;;;8.50;7.50;;;;;20.54;39.31;102733.63;5098047;27;45280;-47
2021/11/19 07:30:11;;;;;;;;;8.00;8.00;;;;;20.58;39.71;102743.16;5097709;27;45270;-52
2021/11/19 07:32:36;;;;;;;;;7.50;7.50;;;;;20.57;39.92;102738.81;5097649;27;45357;-56
2021/11/19 07:35:04;;;;;;;;;7.25;7.25;;;;;20.57;39.80;102749.34;5098031;27;45410;-58
2021/11/19 07:37:29;;;;;;;;;6.50;6.50;;;;;20.51;39.86;102744.25;5097864;27;45453;-54
2021/11/19 07:39:55;;;;;;;;;9.00;9.00;;;;;20.53;39.75;102745.06;5079170;27;45485;-59
2021/11/19 07:42:21;;;;;;;;;10.00;7.50;;;;;20.53;40.05;102745.06;5062496;27;45430;-58
2021/11/19 07:44:47;;;;;;;;;6.25;6.25;;;;;20.53;40.03;102753.81;5098098;27;45346;-57
2021/11/19 07:47:12;;;;;;;;;7.50;6.50;;;;;20.51;39.63;102753.00;5079787;27;45553;-57
2021/11/19 07:49:37;;;;;;;;;7.00;7.00;;;;;20.50;39.96;102751.28;5097411;27;45880;-58
2021/11/19 07:52:04;;;;;;;;;5.75;5.75;;;;;20.49;40.11;102752.19;5079189;27;45488;-59
2021/11/19 07:54:29;;;;;;;;;7.75;6.00;;;;;20.47;39.90;102743.47;5079427;27;45391;-55
2021/11/19 07:56:55;;;;;;;;;8.00;8.00;;;;;20.47;39.99;102747.84;5097753;27;45280;-59
2021/11/19 07:59:24;;;;;;;;;7.00;7.00;;;;;20.46;39.99;102749.63;5078954;27;48417;-58
2021/11/19 08:01:51;;;;;;;;;8.75;6.00;;;;;20.50;39.96;102753.03;5079107;27;45649;-51
2021/11/19 08:04:17;;;;;;;;;7.00;7.00;;;;;20.49;40.05;102761.84;5097693;27;45461;-54
2021/11/19 08:06:43;;;;;;;;;6.00;5.00;;;;;20.46;39.66;102754.88;5079171;27;45629;-56
2021/11/19 08:09:10;;;;;;;;;4.00;4.00;;;;;20.48;39.65;102762.75;5078818;27;45815;-50
2021/11/19 08:11:35;;;;;;;;;5.75;5.75;;;;;20.46;40.27;102757.53;5096626;27;45922;-53
2021/11/19 08:14:02;;;;;;;;;6.50;6.50;;;;;20.47;40.18;102759.25;5097290;27;45444;-50
2021/11/19 08:16:34;;;;;;;;;3.00;3.00;;;;;20.47;40.11;102766.28;5097489;27;45393;-52
2021/11/19 08:19:02;;;;;;;;;7.50;7.00;;;;;20.44;39.82;102769.84;5096985;27;46654;-46
2021/11/19 08:21:28;;;;;;;;;7.50;7.50;;;;;20.45;40.26;102762.84;5097074;27;45400;-50
2021/11/19 08:24:01;;;;;;;;;6.25;6.25;;;;;20.43;39.72;102765.50;5078833;27;45367;-51
2021/11/19 08:26:37;;;;;;;;;8.50;8.50;;;;;20.43;40.29;102767.28;5097378;27;45423;-56
2021/11/19 08:29:06;;;;;;;;;7.00;7.00;;;;;20.42;40.08;102765.53;5096857;27;46160;-58
2021/11/19 08:31:31;;;;;;;;;10.00;7.00;;;;;20.42;39.74;102760.28;5096946;27;46068;-53
2021/11/19 08:33:56;;;;;;;;;8.00;7.25;;;;;20.41;40.43;102769.06;5097119;27;45788;-58
2021/11/19 08:36:25;;;;;;;;;7.00;7.00;;;;;20.40;40.38;102768.19;5096920;27;45510;-50
2021/11/19 08:38:51;;;;;;;;;7.25;7.25;;;;;20.37;40.59;102760.38;5096977;27;47186;-52
2021/11/19 08:41:17;;;;;;;;;6.25;6.25;;;;;20.41;40.30;102767.28;5096796;27;45902;-53
2021/11/19 08:43:45;;;;;;;;;7.50;7.50;;;;;20.42;40.71;102765.53;5097022;27;45370;-56
2021/11/19 08:46:25;;;;;;;;;9.50;7.25;;;;;20.43;40.70;102754.09;5096975;27;45248;-49
2021/11/19 08:48:50;;;;;;;;;7.00;6.00;;;;;20.44;40.22;102758.47;5097068;27;45392;-58
2021/11/19 08:51:21;;;;;;;;;9.00;7.25;;;;;20.45;40.08;102754.94;5078284;27;45324;-54
2021/11/19 08:53:49;;;;;;;;;6.00;6.00;;;;;20.42;40.46;102755.84;5096974;27;45262;-56
2021/11/19 08:56:15;;;;;;;;;7.50;6.00;;;;;20.40;40.14;102755.03;5096061;27;45614;-57
2021/11/19 08:58:42;;;;;;;;;7.25;7.00;;;;;20.41;40.67;102754.13;5096416;27;45409;-58
2021/11/19 09:01:10;;;;;;;;;7.00;7.00;;;;;20.41;40.77;102758.53;5096550;27;45358;-53
2021/11/19 09:03:36;;;;;;;;;8.00;6.25;;;;;20.39;40.81;102756.81;5096671;27;45223;-53
2021/11/19 09:06:06;;;;;;;;;6.75;5.00;;;;;20.41;40.44;102763.81;5096698;27;45482;-54
2021/11/19 09:08:32;;;;;;;;;3.00;2.50;;;;;20.37;40.45;102760.38;5078197;27;48356;-54
2021/11/19 09:10:58;;;;;;;;;6.75;6.75;;;;;20.39;40.79;102761.22;5096357;27;45406;-51
2021/11/19 09:13:24;;;;;;;;;7.50;7.50;;;;;20.39;40.79;102767.34;5096508;27;45413;-46
2021/11/19 09:15:51;;;;;;;;;7.25;7.25;;;;;20.38;40.52;102764.75;5097030;27;45418;-56
2021/11/19 09:18:44;;;;;;;;;7.25;7.25;;;;;20.35;40.86;102760.41;5077882;27;46484;-53
2021/11/19 09:21:28;;;;;;;;;7.75;7.75;;;;;20.39;40.93;102771.75;5096634;27;45845;-58
2021/11/19 09:24:13;;;;;;;;;8.00;6.75;;;;;20.38;40.49;102772.66;5099820;27;45472;-44
2021/11/19 09:26:50;;;;;;;;;8.25;7.25;;;;;20.39;40.41;102774.38;5099892;27;45553;-57
2021/11/19 09:29:30;;;;;;;;;13.50;7.50;;;;;20.34;40.67;102766.56;5099713;27;46653;-57
2021/11/19 09:31:55;;;;;;;;;10.75;9.75;;;;;20.34;40.31;102766.56;5099744;27;45463;-48
2021/11/19 09:34:22;;;;;;;;;10.00;9.00;;;;;20.37;40.49;102778.81;5100026;27;45396;-59
2021/11/19 09:36:48;;;;;;;;;9.25;7.75;;;;;20.38;40.90;102778.78;5099947;27;45453;-55
2021/11/19 09:39:17;;;;;;;;;6.75;6.75;;;;;20.37;40.52;102781.47;5099367;27;45529;-59
2021/11/19 09:42:07;;;;;;;;;12.25;7.75;;;;;20.35;40.45;102783.25;5081155;27;45823;-56
2021/11/19 09:44:36;;;;;;;;;10.00;7.00;;;;;20.34;40.99;102777.09;5082251;27;45355;-60
2021/11/19 09:47:06;;;;;;;;;10.25;9.50;;;;;20.38;40.78;102781.41;5099703;27;45240;-57
2021/11/19 09:49:31;;;;;;;;;11.25;11.25;;;;;20.39;40.65;102783.16;5099178;27;46498;-56
2021/11/19 09:52:21;;;;;;;;;8.33;8.00;;;;;20.39;40.63;102777.88;5099431;27;45342;-58
2021/11/19 09:55:05;;;;;;;;;13.25;10.25;;;;;20.40;40.89;102784.00;5080946;27;45311;-55
2021/11/19 09:57:55;;;;;;;;;10.00;9.50;;;;;20.41;40.84;102782.25;5081124;27;45465;-56
2021/11/19 10:00:24;;;;;;;;;9.75;8.00;;;;;20.42;41.20;102778.72;5099398;27;46302;-53
2021/11/19 10:03:37;;;;;;;;;13.00;10.25;;;;;20.41;41.28;102779.59;5099171;27;45268;-55
2021/11/19 10:06:32;;;;;;;;;12.50;10.00;;;;;20.38;41.17;102773.50;5025719;27;45603;-47
2021/11/19 10:09:15;;;;;;;;;11.00;11.00;;;;;20.41;41.16;102775.19;5092018;27;45379;-45
2021/11/19 10:11:50;;;;;;;;;9.50;8.75;;;;;20.42;40.77;102771.66;5098956;27;45732;-49
2021/11/19 10:14:30;;;;;;;;;9.75;7.75;;;;;20.43;40.76;102776.03;5099099;27;45450;-52
2021/11/19 10:17:33;;;;;;;;;10.25;9.25;;;;;20.43;41.40;102773.41;5099467;27;45493;-56
2021/11/19 10:20:03;;;;;;;;;12.25;9.00;;;;;20.43;40.95;102756.75;5099149;27;45564;-56
2021/11/19 10:22:38;;;;;;;;;9.25;9.25;;;;;20.44;41.30;102763.75;5098915;27;45637;-54
2021/11/19 10:25:06;;;;;;;;;8.25;8.00;;;;;20.44;40.92;102763.75;5099009;27;45235;-51
2021/11/19 10:27:36;;;;;;;;;11.00;8.25;;;;;20.44;41.53;102761.09;5099068;27;45762;-55
2021/11/19 10:30:11;;;;;;;;;12.50;9.75;;;;;20.42;41.04;102755.00;5099206;27;45402;-52
2021/11/19 10:32:37;;;;;;;;;10.00;9.00;;;;;20.44;40.97;102764.59;5080030;27;45394;-60
2021/11/19 10:35:30;;;;;;;;;9.00;8.25;;;;;20.45;41.40;102760.22;5098409;27;45307;-57
2021/11/19 10:38:14;;;;;;;;;8.50;8.00;;;;;20.45;41.43;102762.84;5099153;27;45423;-60
2021/11/19 10:40:58;;;;;;;;;9.50;8.75;;;;;20.45;41.47;102762.84;5098734;27;45330;-60
2021/11/19 10:43:39;;;;;;;;;10.50;8.25;;;;;20.45;41.22;102758.44;5080458;27;47198;-55
2021/11/19 10:46:32;;;;;;;;;9.00;7.75;;;;;20.44;41.25;102759.31;5098566;27;45259;-58
2021/11/19 10:49:11;;;;;;;;;8.50;8.50;;;;;20.44;41.24;102761.09;5098884;27;45314;-46
2021/11/19 10:51:48;;;;;;;;;9.75;7.00;;;;;20.45;41.61;102753.16;5098760;27;45535;-59
2021/11/19 10:54:51;;;;;;;;;7.00;7.00;;;;;20.46;41.18;102754.00;5098445;27;45663;-57
2021/11/19 10:57:55;;;;;;;;;8.00;8.00;;;;;20.44;41.52;102751.44;5098278;27;45906;-57
2021/11/19 11:00:24;;;;;;;;;8.00;8.00;;;;;20.45;41.17;102749.69;5098363;27;45465;-56
2021/11/19 11:02:51;;;;;;;;;10.75;8.00;;;;;20.45;41.48;102749.69;5098576;27;45381;-60
2021/11/19 11:05:38;;;;;;;;;7.00;7.00;;;;;20.45;41.38;102744.41;5098024;27;45730;-55
2021/11/19 11:08:03;;;;;;;;;8.25;7.25;;;;;20.46;41.45;102746.09;5098303;27;45339;-56
2021/11/19 11:10:42;;;;;;;;;9.67;7.00;;;;;20.46;41.29;102740.84;5098712;27;45446;-53
2021/11/19 11:13:41;;;;;;;;;7.25;7.25;;;;;20.47;41.64;102739.94;5098196;27;45383;-51
2021/11/19 11:16:25;;;;;;;;;7.00;7.00;;;;;20.46;41.62;102744.34;5053547;27;46591;-58
2021/11/19 11:18:50;;;;;;;;;9.00;7.75;;;;;20.47;41.26;102742.56;5097665;27;45804;-53
2021/11/19 11:21:36;;;;;;;;;9.67;9.00;;;;;20.46;41.19;102733.81;5098060;27;45200;-58
2021/11/19 11:24:08;;;;;;;;;10.25;9.00;;;;;20.45;41.14;102731.25;5098203;27;45307;-56
2021/11/19 11:26:45;;;;;;;;;7.00;7.00;;;;;20.44;41.03;102732.13;5097699;27;45426;-58
2021/11/19 11:29:13;;;;;;;;;10.00;10.00;;;;;20.43;41.34;102730.41;5096654;27;45915;-52
2021/11/19 11:32:00;;;;;;;;;14.25;9.25;;;;;20.42;41.54;102728.66;5097923;27;45308;-56
2021/11/19 11:34:32;;;;;;;;;4.25;4.00;;;;;20.38;41.24;102727.88;5098358;27;45508;-54